Last 1000 Observations

Pierce College

10 Minute Data | America/Los_Angeles
as of 1/17/21 1:59 PM PST
Date & Time Temp Max (°F) Temp Min (°F) RH (%) Dew Pt (°F) Latest Rain (In) Seasonal Rainfall (In) Soil Temp (°F) Soil Moist (%) Pressure (mb) (mb) Wind Spd (mph) Wind Dir (°) Wind Gust (mph) Wind Gst Dir (°) Leaf Wet Raw (mV) Net Radiation (W/m²) Evap Pan Wind Spd (mph) Evap Pan WindRun (miles) Evap Pan H2O Temp (°F) Evap Pan Level (In)
1/17/21 - 1350 86.9 85.4 8 18.6 0.00 1.69 61.8 43.6 1,015.5 1.5 N | 4 4.3 NNE | 19 260 241 1.0 9.5 111.8 3.8
1/17/21 - 1340 86.8 85.5 9 19.9 0.00 1.69 61.8 43.6 1,015.6 1.2 NNW | 333 5.9 ENE | 57 260 252 1.0 9.4 112.3 3.8
1/17/21 - 1330 86.5 85.0 9 20.6 0.00 1.69 61.8 43.5 1,015.7 2.2 N | 352 7.0 NNE | 14 260 265 0.8 9.2 112.0 3.8
1/17/21 - 1320 87.6 85.7 9 20.8 0.00 1.69 61.8 43.5 1,015.8 2.0 NNW | 332 6.9 NE | 48 260 274 1.6 9.1 111.2 3.8
1/17/21 - 1310 86.9 86.0 9 21.0 0.00 1.69 61.8 43.5 1,015.9 1.3 NW | 314 4.3 WNW | 303 260 284 1.4 8.8 110.9 3.8
1/17/21 - 1300 86.0 84.9 9 21.1 0.00 1.69 61.7 43.5 1,016.0 1.7 NNW | 337 5.3 N | 0 260 292 1.2 8.6 111.5 3.8
1/17/21 - 1250 86.2 85.2 9 20.6 0.00 1.69 61.7 43.5 1,016.2 1.9 N | 360 5.0 E | 89 260 299 1.1 8.4 110.9 3.8
1/17/21 - 1240 86.5 84.9 9 20.8 0.00 1.69 61.7 43.5 1,016.3 1.2 NNW | 344 5.2 NE | 38 260 304 1.1 8.2 111.1 3.8
1/17/21 - 1230 85.1 84.2 9 20.7 0.00 1.69 61.4 43.5 1,016.4 2.1 N | 352 6.3 NNE | 28 260 308 1.1 8.0 110.4 3.7
1/17/21 - 1220 84.3 83.8 10 20.5 0.00 1.69 61.5 43.4 1,016.6 2.8 N | 5 5.9 NE | 45 260 310 1.1 7.8 109.7 3.7
1/17/21 - 1210 84.4 83.5 10 20.7 0.00 1.69 61.4 43.4 1,016.8 2.8 N | 5 7.5 NE | 37 260 310 1.0 7.6 108.7 3.7
1/17/21 - 1200 83.5 82.8 10 20.4 0.00 1.69 61.5 43.4 1,017.0 3.3 N | 11 7.5 NE | 35 261 310 1.1 7.5 107.7 3.7
1/17/21 - 1150 83.8 82.8 10 20.6 0.00 1.69 61.4 43.4 1,017.1 3.1 N | 4 7.1 NNE | 15 261 305 0.9 7.3 106.0 3.7
1/17/21 - 1140 83.7 81.7 10 20.8 0.00 1.69 61.5 43.4 1,017.4 1.8 N | 358 5.8 NE | 46 261 302 0.8 7.1 103.9 3.7
1/17/21 - 1130 82.5 81.4 10 20.2 0.00 1.69 61.4 43.4 1,017.6 3.6 N | 6 7.4 NNE | 33 261 300 1.2 7.0 103.5 3.7
1/17/21 - 1120 82.4 81.4 10 19.9 0.00 1.69 61.5 43.4 1,017.8 3.7 N | 2 11.2 NNE | 18 261 293 1.3 6.8 103.1 3.7
1/17/21 - 1110 82.2 81.5 10 20.1 0.00 1.69 61.5 43.4 1,018.0 2.7 N | 357 7.3 N | 352 261 284 0.9 6.6 102.1 3.7
1/17/21 - 1100 81.7 81.2 10 20.0 0.00 1.69 61.5 43.4 1,018.2 2.5 N | 357 5.2 NW | 318 261 276 0.8 6.4 101.0 3.7
1/17/21 - 1050 81.5 80.8 10 19.7 0.00 1.69 61.6 43.4 1,018.3 2.5 N | 5 5.6 NNW | 336 261 267 0.9 6.3 99.6 3.7
1/17/21 - 1040 81.2 80.5 10 19.7 0.00 1.69 61.6 43.4 1,018.5 2.4 N | 7 5.2 N | 7 261 257 0.6 6.1 98.0 3.7
1/17/21 - 1030 80.9 80.3 11 20.2 0.00 1.69 61.6 43.4 1,018.6 1.9 N | 355 5.3 WSW | 249 261 248 0.5 6.0 96.0 3.7
1/17/21 - 1020 80.5 79.9 11 20.6 0.00 1.69 61.7 43.4 1,018.7 1.9 N | 7 4.5 NNE | 17 261 238 0.4 6.0 93.5 3.7
1/17/21 - 1010 80.4 79.8 11 20.9 0.00 1.69 61.8 43.4 1,018.8 1.4 N | 354 7.0 N | 6 260 227 0.4 5.9 91.9 3.7
1/17/21 - 1000 80.9 80.0 11 21.5 0.00 1.69 61.8 43.4 1,018.9 1.2 NNW | 345 3.5 NNE | 19 260 216 0.5 5.8 89.8 3.7
1/17/21 - 0950 80.1 79.2 11 21.2 0.00 1.69 61.9 43.4 1,019.0 0.7 NNW | 338 2.3 WNW | 296 260 205 0.5 5.7 88.3 3.7
1/17/21 - 0940 79.5 78.9 12 22.2 0.00 1.69 61.9 43.5 1,019.0 0.5 NNW | 345 1.7 NNE | 32 260 194 0.5 5.7 87.2 3.7
1/17/21 - 0930 79.1 78.4 13 23.2 0.00 1.69 62.0 43.5 1,019.0 0.3 ESE | 102 1.5 NNE | 26 261 181 0.1 5.6 84.3 3.7
1/17/21 - 0920 79.1 77.5 13 23.7 0.00 1.69 62.0 43.6 1,019.0 0.4 SSW | 199 1.8 N | 353 261 166 0.2 5.5 78.2 3.7
1/17/21 - 0910 77.7 75.3 16 26.6 0.00 1.69 62.0 43.6 1,018.9 0.5 SE | 125 1.5 SE | 142 261 150 0.2 5.5 72.2 3.7
1/17/21 - 0900 75.3 73.0 20 29.9 0.00 1.69 62.0 43.7 1,018.8 0.5 ESE | 108 1.8 SE | 131 262 134 0.1 5.5 67.8 3.7
1/17/21 - 0850 73.1 69.4 22 30.6 0.00 1.69 62.0 43.7 1,018.7 0.4 SSW | 196 2.1 SSW | 205 262 118 0.2 5.5 64.4 3.7
1/17/21 - 0840 69.4 68.1 24 30.6 0.00 1.69 62.0 43.7 1,018.6 0.8 SE | 124 2.2 SE | 140 262 101 0.3 5.4 61.3 3.7
1/17/21 - 0830 68.1 65.9 26 30.6 0.00 1.69 62.0 43.7 1,018.5 1.0 SE | 143 1.9 SSE | 163 262 85 0.4 5.4 57.8 3.7
1/17/21 - 0820 65.9 63.2 27 29.4 0.00 1.69 62.1 43.7 1,018.4 0.5 SSW | 198 2.2 NNE | 30 262 71 0.2 5.3 54.6 3.7
1/17/21 - 0810 63.4 62.4 27 28.6 0.00 1.69 62.1 43.8 1,018.2 0.9 SE | 138 2.1 N | 351 263 7 0.3 5.3 52.2 3.7
1/17/21 - 0800 62.6 62.0 27 28.2 0.00 1.69 62.1 43.8 1,018.1 0.9 SE | 142 2.3 E | 97 264 -37 0.3 5.2 51.1 3.7
1/17/21 - 0750 61.9 59.6 28 27.1 0.00 1.69 62.1 43.7 1,018.0 1.2 SE | 138 2.9 SSE | 162 264 -39 0.6 5.2 50.1 3.7
1/17/21 - 0740 59.6 58.4 28 26.2 0.00 1.69 62.1 43.8 1,017.9 1.4 SSE | 149 2.8 SE | 138 264 -43 0.6 5.1 49.5 3.7
1/17/21 - 0730 58.9 58.4 28 25.3 0.00 1.69 62.1 43.8 1,017.8 1.5 SSE | 152 2.4 SE | 129 264 -46 0.7 5.0 49.0 3.7
1/17/21 - 0720 59.3 58.6 26 24.1 0.00 1.69 62.1 43.8 1,017.8 1.1 SSE | 164 2.3 SW | 221 264 -51 0.7 4.9 48.8 3.7
1/17/21 - 0710 59.0 58.0 26 24.1 0.00 1.69 62.1 43.8 1,017.8 1.3 SSE | 165 3.2 SSW | 196 264 -53 0.8 4.8 47.9 3.7
1/17/21 - 0700 58.2 57.6 28 24.6 0.00 1.69 62.1 43.8 1,017.7 1.2 SSE | 151 2.5 SE | 137 264 -55 0.7 4.6 47.6 3.7
1/17/21 - 0650 58.1 57.6 27 24.2 0.00 1.69 62.1 43.8 1,017.5 1.5 S | 172 2.7 SSW | 204 264 -56 0.7 4.5 47.7 3.7
1/17/21 - 0640 58.3 58.0 27 24.4 0.00 1.69 62.1 43.9 1,017.5 1.1 SSE | 156 2.2 SE | 139 264 -58 0.4 4.4 48.0 3.7
1/17/21 - 0630 59.2 58.2 25 23.4 0.00 1.69 62.1 43.9 1,017.5 0.8 SSE | 161 2.3 SSE | 164 264 -58 0.3 4.3 48.6 3.7
1/17/21 - 0620 60.0 58.7 25 23.4 0.00 1.69 62.2 43.8 1,017.3 0.8 SE | 139 2.8 SE | 126 264 -59 0.5 4.3 49.1 3.7
1/17/21 - 0610 60.0 58.1 25 23.5 0.00 1.69 62.1 43.9 1,017.2 1.4 SSE | 166 2.8 SE | 144 264 -59 0.9 4.2 48.8 3.7
1/17/21 - 0600 59.0 57.9 27 24.5 0.00 1.69 62.1 43.9 1,017.2 0.9 SSE | 157 2.7 S | 174 264 -60 0.5 4.1 48.9 3.7
1/17/21 - 0550 59.7 58.8 26 24.2 0.00 1.69 62.1 43.9 1,017.1 0.7 SSE | 151 2.5 SSE | 158 264 -60 0.4 4.0 49.1 3.7
1/17/21 - 0540 59.7 58.8 25 23.9 0.00 1.69 62.2 43.9 1,017.1 1.3 SSE | 150 2.6 SE | 144 264 -60 0.6 3.9 49.2 3.7
1/17/21 - 0530 59.9 58.9 25 23.4 0.00 1.69 61.8 43.9 1,017.0 1.5 SSE | 156 3.5 SSW | 206 264 -59 0.7 3.8 49.3 3.7
1/17/21 - 0520 60.2 59.4 25 23.8 0.00 1.69 61.8 43.9 1,017.0 0.9 ESE | 123 2.6 SE | 144 263 -60 0.6 3.7 49.7 3.7
1/17/21 - 0510 61.1 59.4 25 23.9 0.00 1.69 61.8 43.9 1,017.0 1.2 SSE | 148 2.5 SE | 138 263 -61 0.8 3.6 49.7 3.7
1/17/21 - 0500 61.6 59.5 24 23.2 0.00 1.69 61.8 43.9 1,017.0 1.2 SE | 138 3.2 ESE | 119 263 -61 0.7 3.5 49.6 3.7
1/17/21 - 0450 60.5 59.4 25 23.9 0.00 1.69 61.8 43.9 1,017.0 1.3 SSE | 150 3.2 SE | 144 263 -60 0.4 3.3 49.5 3.7
1/17/21 - 0440 61.4 60.1 24 23.3 0.00 1.69 61.8 43.9 1,016.9 1.4 SSE | 165 3.0 S | 173 263 -60 0.9 3.3 50.0 3.7
1/17/21 - 0430 61.8 61.2 23 23.4 0.00 1.69 62.2 44.0 1,016.9 0.9 SSE | 151 2.4 S | 169 263 -62 0.3 3.1 50.9 3.7
1/17/21 - 0420 61.9 60.9 24 23.8 0.00 1.69 62.2 43.9 1,016.8 1.8 SE | 137 2.8 SE | 136 263 -62 0.6 3.1 50.9 3.7
1/17/21 - 0410 62.1 61.3 22 22.8 0.00 1.69 62.2 44.0 1,016.7 1.2 S | 174 2.6 SSW | 209 263 -61 0.8 3.0 51.0 3.7
1/17/21 - 0400 61.7 60.9 23 23.2 0.00 1.69 62.3 43.9 1,016.7 0.8 SSE | 154 2.5 SSE | 168 263 -61 0.3 2.8 51.5 3.7
1/17/21 - 0350 62.2 61.1 23 23.6 0.00 1.69 62.3 44.0 1,016.7 1.5 SSE | 155 3.3 SE | 145 263 -61 0.9 2.8 51.7 3.7
1/17/21 - 0340 63.0 62.1 22 23.0 0.00 1.69 62.3 44.0 1,016.7 1.2 SSE | 158 2.9 SSE | 148 263 -60 0.9 2.6 51.9 3.7
1/17/21 - 0330 64.3 62.8 21 22.7 0.00 1.69 62.3 44.0 1,016.8 1.0 S | 174 2.3 S | 174 263 -61 0.6 2.5 52.3 3.7
1/17/21 - 0320 65.1 63.3 20 22.2 0.00 1.69 62.3 44.0 1,016.8 1.6 SSE | 153 2.8 S | 190 263 -62 1.0 2.4 52.4 3.7
1/17/21 - 0310 64.9 62.8 21 22.5 0.00 1.69 62.4 44.0 1,016.9 1.9 SSE | 166 3.6 SSW | 196 263 -61 1.4 2.2 51.7 3.7
1/17/21 - 0300 63.5 63.0 21 23.1 0.00 1.69 62.3 44.0 1,017.0 1.1 SSE | 158 2.3 SSE | 151 263 -61 0.9 2.0 51.6 3.7
1/17/21 - 0250 63.5 62.4 21 22.8 0.00 1.69 62.3 44.0 1,017.0 0.9 SE | 146 2.9 SSE | 148 263 -61 0.4 1.8 51.8 3.7
1/17/21 - 0240 66.4 62.6 21 23.2 0.00 1.69 62.4 44.0 1,017.1 1.4 SSE | 156 3.4 SE | 143 263 -61 0.9 1.8 51.9 3.7
1/17/21 - 0230 66.7 65.7 18 21.4 0.00 1.69 62.4 44.0 1,017.0 0.6 SSE | 164 2.5 S | 183 263 -62 0.4 1.6 51.9 3.7
1/17/21 - 0220 65.7 64.1 19 21.7 0.00 1.69 62.5 44.0 1,017.1 0.6 SE | 145 2.3 NNE | 19 263 -61 0.3 1.5 52.0 3.7
1/17/21 - 0210 64.3 62.4 21 23.0 0.00 1.69 62.5 44.0 1,017.1 1.1 SE | 137 2.4 SE | 124 263 -61 0.7 1.5 52.0 3.7
1/17/21 - 0200 64.8 62.4 21 23.5 0.00 1.69 62.5 44.1 1,017.2 1.6 SSE | 151 3.1 S | 178 263 -61 0.9 1.4 51.4 3.7
1/17/21 - 0150 64.7 62.9 20 22.3 0.00 1.69 62.5 44.1 1,017.2 1.3 SSE | 166 2.6 S | 187 263 -60 0.8 1.2 51.1 3.7
1/17/21 - 0140 63.5 62.7 21 22.4 0.00 1.69 62.4 44.1 1,017.2 1.2 SSE | 165 2.5 SSE | 149 263 -60 0.7 1.1 51.1 3.7
1/17/21 - 0130 62.9 62.2 22 23.2 0.00 1.69 62.5 44.1 1,017.2 1.6 SSE | 155 2.7 SE | 140 263 -60 0.6 1.0 51.2 3.7
1/17/21 - 0120 63.9 62.4 22 23.1 0.00 1.69 62.5 44.1 1,017.1 1.4 S | 169 2.7 SE | 142 263 -60 0.6 0.8 51.3 3.7
1/17/21 - 0110 62.5 61.8 23 24.0 0.00 1.69 62.5 44.1 1,017.1 1.1 SSE | 155 2.5 SSE | 161 263 -61 0.3 0.8 51.9 3.7
1/17/21 - 0100 62.4 61.1 23 23.8 0.00 1.69 62.4 44.1 1,017.0 1.3 SSE | 162 3.1 S | 173 263 -61 0.6 0.7 52.3 3.7
1/17/21 - 0050 61.8 60.9 25 24.8 0.00 1.69 62.5 44.1 1,017.0 1.3 SSE | 166 2.6 SE | 135 263 -62 0.8 0.6 52.6 3.7
1/17/21 - 0040 63.4 61.6 24 24.6 0.00 1.69 62.5 44.1 1,016.9 1.4 SSE | 158 2.4 SE | 136 263 -63 0.7 0.5 52.9 3.7
1/17/21 - 0030 64.9 63.4 21 23.4 0.00 1.69 62.5 44.1 1,016.9 1.4 SSE | 154 3.0 SSE | 150 263 -62 0.5 0.3 53.4 3.7
1/17/21 - 0020 65.6 64.4 20 22.8 0.00 1.69 62.5 44.1 1,016.9 1.5 SSE | 164 3.2 SE | 143 263 -63 0.7 0.3 54.0 3.7
1/17/21 - 0010 65.9 64.8 20 23.1 0.00 1.69 62.5 44.1 1,016.9 1.3 SSE | 162 2.5 SSW | 199 263 -64 0.9 0.1 54.4 3.7
1/17/21 - 0000 65.4 64.6 20 23.3 0.00 1.69 62.5 44.1 1,016.9 1.5 SSE | 157 3.2 SE | 140 263 -64 0.8 23.0 54.7 3.7
1/16/21 - 2350 67.3 65.2 20 23.5 0.00 1.69 62.5 44.1 1,017.0 1.4 S | 172 2.5 SSW | 197 263 -65 0.6 22.8 55.7 3.7
1/16/21 - 2340 69.5 67.2 18 23.0 0.00 1.69 62.5 44.1 1,017.0 0.9 SSE | 161 2.4 SSE | 149 262 -66 0.5 22.7 57.2 3.7
1/16/21 - 2330 72.1 69.5 16 21.9 0.00 1.69 62.5 44.1 1,017.1 0.6 S | 185 2.1 SSE | 158 262 -69 0.5 22.6 58.4 3.7
1/16/21 - 2320 72.1 71.5 15 21.5 0.00 1.69 62.5 44.1 1,017.1 0.7 N | 6 2.3 NNE | 18 262 -71 0.3 22.6 59.0 3.7
1/16/21 - 2310 72.4 71.8 15 21.5 0.00 1.69 62.5 44.1 1,017.1 0.6 S | 180 2.5 NW | 321 262 -72 0.5 22.5 59.6 3.7
1/16/21 - 2300 72.9 71.8 15 22.1 0.00 1.69 63.1 44.1 1,017.1 0.9 SSE | 152 2.4 SSW | 195 262 -73 0.6 22.4 61.1 3.7
1/16/21 - 2250 73.1 71.6 15 22.3 0.00 1.69 63.4 44.1 1,017.1 1.1 NNE | 21 4.6 ENE | 59 262 -72 0.4 22.3 61.2 3.7
1/16/21 - 2240 71.6 70.2 17 23.6 0.00 1.69 63.3 44.1 1,017.1 0.8 NE | 35 2.5 SW | 233 262 -71 0.5 22.3 60.8 3.7
1/16/21 - 2230 70.2 68.2 19 25.1 0.00 1.69 63.3 44.1 1,017.2 1.2 SSE | 149 4.7 N | 354 262 -70 0.9 22.2 59.7 3.7
1/16/21 - 2220 69.1 68.0 20 26.0 0.00 1.69 63.3 44.1 1,017.2 1.4 SSE | 148 3.8 E | 94 262 -69 0.9 22.0 59.3 3.7
1/16/21 - 2210 68.5 67.7 21 26.5 0.00 1.69 63.3 44.1 1,017.2 1.7 SSE | 166 3.7 SW | 220 263 -69 0.8 21.9 59.9 3.7
1/16/21 - 2200 69.3 67.6 21 26.5 0.00 1.69 63.3 44.1 1,017.1 1.5 S | 175 2.8 SW | 226 262 -70 0.9 21.8 60.7 3.7
1/16/21 - 2150 71.4 69.3 19 26.2 0.00 1.69 63.3 44.2 1,017.1 1.9 S | 169 3.6 S | 169 262 -70 1.1 21.6 61.3 3.7
1/16/21 - 2140 71.7 69.6 19 26.0 0.00 1.69 63.3 44.2 1,017.1 1.6 SSE | 166 3.7 SSW | 206 262 -70 1.3 21.4 61.8 3.7
1/16/21 - 2130 71.2 70.5 18 25.7 0.00 1.69 63.3 44.1 1,017.1 1.2 SSE | 163 2.8 S | 188 262 -71 0.9 21.2 63.2 3.7
1/16/21 - 2120 72.4 70.8 18 25.7 0.00 1.69 63.3 44.1 1,017.0 2.5 S | 176 4.6 SSW | 194 262 -72 1.7 21.1 63.9 3.7
1/16/21 - 2110 74.6 72.6 16 25.1 0.00 1.69 63.2 44.2 1,017.0 1.0 S | 179 2.8 SSE | 166 262 -75 0.7 20.8 65.0 3.7
1/16/21 - 2100 74.3 73.0 16 25.0 0.00 1.69 63.2 44.1 1,016.9 2.0 SSW | 199 4.9 SSW | 205 262 -75 1.7 20.6 65.0 3.7
1/16/21 - 2050 75.3 73.3 15 24.6 0.00 1.69 63.2 44.1 1,016.8 1.4 SE | 125 4.5 NNE | 30 262 -76 0.7 20.4 65.9 3.7
1/16/21 - 2040 74.8 73.7 16 24.6 0.00 1.69 63.2 44.2 1,016.7 1.1 SSE | 158 3.7 WNW | 283 262 -76 0.8 20.2 65.9 3.7
1/16/21 - 2030 74.4 73.8 16 24.8 0.00 1.69 63.2 44.1 1,016.7 0.9 E | 81 3.4 ESE | 112 262 -77 0.8 20.1 66.3 3.7
1/16/21 - 2020 75.2 74.3 15 24.4 0.00 1.69 63.2 44.1 1,016.6 1.4 SW | 221 3.8 SSW | 201 262 -76 1.1 20.0 67.2 3.7
1/16/21 - 2010 76.1 75.2 15 24.3 0.00 1.69 63.2 44.1 1,016.5 0.8 SW | 219 3.2 NW | 311 261 -79 0.4 19.8 69.3 3.7
1/16/21 - 2000 76.7 76.0 14 24.4 0.00 1.69 63.1 44.1 1,016.4 0.9 NNW | 340 2.3 NNE | 15 261 -81 0.5 19.7 70.5 3.7
1/16/21 - 1950 77.3 76.5 14 24.4 0.00 1.69 63.1 44.1 1,016.3 2.1 N | 10 7.6 NNE | 22 261 -83 0.9 19.6 72.3 3.7
1/16/21 - 1940 77.1 76.5 14 24.3 0.00 1.69 63.1 44.1 1,016.2 3.0 N | 359 10.1 N | 3 261 -83 1.1 19.5 71.7 3.7
1/16/21 - 1930 77.1 76.5 14 24.4 0.00 1.69 63.1 44.1 1,016.2 2.4 NNE | 14 6.1 NW | 306 261 -83 0.7 19.3 72.0 3.7
1/16/21 - 1920 77.3 76.9 14 24.5 0.00 1.69 63.0 44.1 1,016.2 3.1 NNE | 13 9.4 NNE | 16 261 -84 1.1 19.2 73.1 3.7
1/16/21 - 1910 77.5 76.9 14 24.4 0.00 1.69 63.0 44.1 1,016.2 3.3 NNE | 16 7.8 NNE | 17 261 -83 1.1 19.0 72.9 3.7
1/16/21 - 1900 77.4 76.8 14 24.2 0.00 1.69 62.9 44.1 1,016.2 3.5 NNE | 16 8.3 NE | 36 261 -83 0.9 18.8 72.5 3.7
1/16/21 - 1850 77.3 76.6 14 24.4 0.00 1.69 62.9 44.1 1,016.1 1.6 NNE | 22 8.3 NNW | 332 262 -83 0.7 18.7 71.9 3.7
1/16/21 - 1840 77.7 77.2 14 24.4 0.00 1.69 62.9 44.1 1,016.1 2.0 NNE | 19 6.1 N | 4 261 -84 0.9 18.6 74.9 3.7
1/16/21 - 1830 78.0 77.6 14 24.4 0.00 1.69 62.8 44.1 1,016.0 2.4 N | 3 6.8 NNE | 29 261 -85 0.6 18.4 76.4 3.7
1/16/21 - 1820 78.4 77.8 14 24.4 0.00 1.69 62.8 44.1 1,015.9 2.4 N | 7 7.5 NNE | 15 261 -86 0.8 18.3 77.4 3.7
1/16/21 - 1810 78.7 78.3 13 24.3 0.00 1.69 62.8 44.1 1,015.8 3.6 N | 1 8.2 NNW | 347 261 -87 1.0 18.2 78.2 3.7
1/16/21 - 1800 79.1 78.5 13 24.1 0.00 1.69 62.7 44.1 1,015.7 3.6 NNE | 13 7.8 NNE | 18 261 -88 1.0 18.0 79.5 3.7
1/16/21 - 1750 79.2 78.8 13 24.0 0.00 1.69 62.7 44.1 1,015.6 4.3 NNE | 13 10.1 N | 8 261 -88 1.3 17.8 79.9 3.7
1/16/21 - 1740 79.5 79.0 13 24.0 0.00 1.69 62.6 44.0 1,015.6 4.6 N | 9 13.1 NNE | 22 261 -89 1.3 17.6 80.4 3.8
1/16/21 - 1730 79.6 79.2 13 24.2 0.00 1.69 62.6 44.1 1,015.5 3.5 N | 359 7.9 NE | 36 261 -89 1.2 17.4 80.9 3.8
1/16/21 - 1720 80.1 79.3 13 24.3 0.00 1.69 62.5 44.0 1,015.5 3.9 N | 2 8.8 WNW | 298 261 -88 1.0 17.2 81.9 3.8
1/16/21 - 1710 80.3 79.8 13 24.4 0.00 1.69 62.5 44.0 1,015.4 4.8 N | 8 11.9 NW | 325 261 -86 1.3 17.0 82.5 3.8
1/16/21 - 1700 80.5 80.0 13 24.4 0.00 1.69 62.4 44.0 1,015.4 4.1 N | 8 12.2 NNE | 26 261 -84 1.2 16.8 83.1 3.8
1/16/21 - 1650 81.1 80.3 12 24.4 0.00 1.69 62.4 44.0 1,015.2 3.7 N | 4 11.5 NNE | 29 261 -82 1.0 16.6 84.7 3.8
1/16/21 - 1640 81.8 80.9 12 24.5 0.00 1.69 62.3 44.0 1,015.1 4.1 N | 1 8.6 NW | 308 261 -72 1.3 16.4 86.8 3.8
1/16/21 - 1630 82.3 81.8 12 24.5 0.00 1.69 62.2 43.9 1,015.1 3.6 N | 0 10.5 NW | 322 261 -45 0.8 16.2 88.5 3.8
1/16/21 - 1620 82.6 82.1 12 24.5 0.00 1.69 62.2 43.9 1,015.0 4.0 N | 355 11.4 NNE | 24 261 -28 1.3 16.1 90.6 3.8
1/16/21 - 1610 83.1 82.4 12 24.3 0.00 1.69 62.1 43.9 1,015.0 4.8 N | 0 12.0 NNE | 29 261 -8 1.7 15.9 92.4 3.8
1/16/21 - 1600 83.5 82.9 12 24.6 0.00 1.69 62.0 43.9 1,015.0 4.1 N | 353 9.8 N | 349 261 13 1.2 15.6 92.9 3.8
1/16/21 - 1550 83.7 83.3 12 24.8 0.00 1.69 61.9 43.9 1,015.0 4.3 N | 357 9.1 NNW | 332 261 35 1.4 15.4 93.5 3.8
1/16/21 - 1540 83.8 83.4 12 24.8 0.00 1.69 61.8 43.9 1,015.0 3.8 N | 0 9.4 NNE | 14 261 54 0.9 15.2 93.8 3.8
1/16/21 - 1530 83.9 83.4 11 24.6 0.00 1.69 61.7 43.8 1,015.0 5.3 N | 4 12.4 NNW | 346 261 78 1.5 15.0 94.4 3.8
1/16/21 - 1520 84.4 83.7 11 24.7 0.00 1.69 61.8 43.8 1,015.1 4.3 NNW | 346 13.3 WNW | 295 261 98 1.4 14.8 96.0 3.8
1/16/21 - 1510 84.8 84.0 11 24.9 0.00 1.69 61.6 43.7 1,015.1 4.0 N | 356 9.9 NW | 326 261 120 1.6 14.5 96.9 3.7
1/16/21 - 1500 84.4 84.0 11 24.6 0.00 1.69 61.5 43.7 1,015.1 4.6 N | 359 11.9 NNW | 336 261 140 1.5 14.3 96.7 3.8
1/16/21 - 1450 85.1 84.3 11 24.6 0.00 1.69 61.4 43.7 1,015.2 4.7 N | 4 13.7 N | 5 260 158 1.5 14.0 97.8 3.8
1/16/21 - 1440 85.4 84.7 11 24.6 0.00 1.69 61.3 43.7 1,015.2 3.8 N | 7 16.3 NNW | 336 260 178 1.4 13.8 98.4 3.7
1/16/21 - 1430 85.2 84.6 11 24.3 0.00 1.69 61.2 43.6 1,015.3 4.1 N | 359 10.9 NNW | 332 260 197 1.7 13.6 98.2 3.7
1/16/21 - 1420 85.2 84.5 11 23.6 0.00 1.69 61.2 43.6 1,015.3 5.8 N | 11 12.4 NNE | 24 260 214 1.8 13.3 98.9 3.8
1/16/21 - 1410 85.3 84.9 10 23.3 0.00 1.69 61.1 43.6 1,015.2 4.4 N | 6 10.9 NW | 308 260 224 1.4 13.0 98.7 3.8
1/16/21 - 1400 85.5 84.6 10 23.2 0.00 1.69 60.9 43.6 1,015.3 3.9 N | 360 11.0 NNE | 12 260 237 1.8 12.8 99.0 3.8
1/16/21 - 1350 84.8 84.3 10 22.9 0.00 1.69 60.9 43.6 1,015.4 4.0 N | 356 8.8 NNE | 23 260 256 1.5 12.4 99.2 3.7
1/16/21 - 1340 85.1 84.3 10 22.7 0.00 1.69 60.8 43.5 1,015.4 4.4 N | 354 12.0 N | 0 261 265 1.9 12.2 99.2 3.7
1/16/21 - 1330 84.9 84.1 10 22.2 0.00 1.69 60.7 43.5 1,015.4 4.7 N | 353 9.2 NNE | 21 261 275 1.7 11.9 99.6 3.7
1/16/21 - 1320 85.1 84.3 10 21.9 0.00 1.69 60.6 43.5 1,015.4 4.2 NNW | 342 11.7 NNE | 23 260 285 1.8 11.6 100.7 3.7
1/16/21 - 1310 85.4 84.5 10 21.8 0.00 1.69 60.5 43.5 1,015.6 4.9 N | 358 15.7 NNE | 22 260 290 1.7 11.3 101.3 3.8
1/16/21 - 1300 85.7 85.0 10 21.9 0.00 1.69 60.5 43.4 1,015.7 3.6 N | 355 10.2 N | 350 260 296 1.5 11.0 101.8 3.7
1/16/21 - 1250 85.7 84.9 10 21.3 0.00 1.69 60.4 43.5 1,015.7 3.7 N | 357 10.7 NW | 316 260 303 1.5 10.8 102.7 3.7
1/16/21 - 1240 85.7 85.0 9 21.0 0.00 1.69 60.2 43.4 1,015.8 2.9 N | 352 9.5 NW | 312 260 310 1.3 10.5 102.5 3.8
1/16/21 - 1230 85.3 84.6 9 20.6 0.00 1.69 60.2 43.4 1,015.9 2.6 NNW | 342 6.8 N | 352 260 314 2.1 10.3 104.2 3.7
1/16/21 - 1220 84.7 84.3 9 20.5 0.00 1.69 60.1 43.4 1,016.1 3.1 NNW | 346 7.4 NNW | 347 260 316 1.1 10.0 108.5 3.7
1/16/21 - 1210 84.9 84.4 10 21.0 0.00 1.69 60.1 43.4 1,016.3 2.9 N | 351 7.1 NNW | 330 261 323 1.5 9.8 111.3 3.7
1/16/21 - 1200 85.1 84.4 10 21.4 0.00 1.69 60.0 43.4 1,016.4 2.1 NNW | 347 6.7 NW | 309 261 205 0.7 9.5 120.1 3.8
1/16/21 - 1150 85.2 84.6 10 21.4 0.00 1.69 60.0 43.3 1,016.5 3.2 N | 356 6.9 NNE | 28 261 277 1.0 9.4 131.9 3.7
1/16/21 - 1140 84.8 83.9 10 22.1 0.00 1.69 60.0 43.3 1,016.7 3.4 N | 356 7.2 NNE | 15 261 362 1.2 9.2 128.6 3.7
1/16/21 - 1130 83.8 82.4 10 21.9 0.00 1.69 60.0 43.3 1,016.8 3.2 N | 356 7.5 N | 7 261 330 1.2 9.0 123.0 3.7
1/16/21 - 1120 82.8 82.3 10 21.6 0.00 1.69 60.1 43.3 1,017.0 4.3 N | 357 10.0 N | 0 261 292 1.4 8.8 121.8 3.7
1/16/21 - 1110 82.6 81.5 11 21.4 0.00 1.69 60.0 43.3 1,017.1 3.4 N | 4 8.0 NNE | 27 261 245 1.4 8.6 121.0 3.7
1/16/21 - 1100 82.0 81.2 10 20.6 0.00 1.69 60.0 43.4 1,017.1 4.8 N | 9 12.3 NNE | 26 261 223 1.5 8.3 124.8 3.8
1/16/21 - 1050 82.0 81.2 10 20.6 0.00 1.69 60.0 43.4 1,017.0 4.8 N | 6 12.7 N | 11 261 289 1.8 8.1 126.7 3.7
1/16/21 - 1040 81.3 80.9 10 20.5 0.00 1.69 60.1 43.4 1,017.0 4.8 N | 3 12.4 NNE | 23 261 258 1.7 7.8 126.4 3.7
1/16/21 - 1030 81.2 80.7 11 20.6 0.00 1.69 60.1 43.4 1,017.2 3.0 N | 351 8.6 NNE | 15 261 175 1.3 7.5 129.2 3.7
1/16/21 - 1020 81.5 80.9 10 20.1 0.00 1.69 60.2 43.4 1,017.3 4.4 N | 354 11.4 NNE | 21 261 172 1.2 7.3 134.5 3.7
1/16/21 - 1010 81.2 80.6 10 20.3 0.00 1.69 60.1 43.4 1,017.4 3.1 N | 1 7.8 NNW | 328 261 202 0.9 7.1 135.9 3.8
1/16/21 - 1000 81.1 80.6 11 20.5 0.00 1.69 60.5 43.4 1,017.5 3.9 N | 356 9.8 NNW | 331 261 164 1.0 6.9 137.2 3.8
1/16/21 - 0950 81.0 80.2 11 20.6 0.00 1.69 60.9 43.4 1,017.5 4.4 N | 0 7.9 NE | 36 261 211 1.2 6.7 139.0 3.8
1/16/21 - 0940 80.5 80.1 11 20.5 0.00 1.69 60.9 43.4 1,017.6 2.8 N | 350 7.0 NNE | 22 261 193 1.2 6.5 137.1 3.8
1/16/21 - 0930 80.3 79.2 11 20.6 0.00 1.69 60.9 43.4 1,017.6 2.0 NNW | 344 6.2 NNE | 13 261 214 0.8 6.3 131.4 3.7
1/16/21 - 0920 79.2 78.3 11 20.2 0.00 1.69 61.0 43.5 1,017.5 2.9 NNW | 347 8.0 NNE | 13 261 168 1.2 6.2 126.7 3.7
1/16/21 - 0910 78.6 78.2 11 20.4 0.00 1.69 61.0 43.5 1,017.4 3.5 N | 360 8.6 NW | 318 261 146 0.9 6.0 127.0 3.7
1/16/21 - 0900 78.5 78.2 11 20.4 0.00 1.69 61.0 43.5 1,017.3 3.7 N | 359 9.6 NNE | 23 261 125 0.9 5.8 121.2 3.7
1/16/21 - 0850 78.6 78.3 11 20.2 0.00 1.69 61.0 43.6 1,017.4 3.2 N | 358 9.5 NNE | 13 261 113 0.8 5.7 112.2 3.7
1/16/21 - 0840 78.6 77.9 11 20.4 0.00 1.69 61.0 43.6 1,017.3 1.9 N | 351 5.8 NW | 317 261 99 0.4 5.6 98.5 3.7
1/16/21 - 0830 78.1 77.7 11 20.1 0.00 1.69 61.1 43.6 1,017.3 1.7 NNW | 343 6.4 WNW | 292 261 82 0.6 5.5 72.8 3.7
1/16/21 - 0820 77.7 76.9 12 20.2 0.00 1.69 61.1 43.6 1,017.2 1.3 NNW | 344 4.9 N | 0 261 66 0.3 5.4 58.0 3.7
1/16/21 - 0810 77.5 76.9 11 19.2 0.00 1.69 61.1 43.6 1,017.2 1.7 NNW | 344 9.0 NNE | 27 262 6 0.4 5.3 55.8 3.7
1/16/21 - 0800 77.4 75.7 11 18.8 0.00 1.69 61.2 43.6 1,017.1 2.3 N | 3 7.6 N | 8 262 -41 0.3 5.3 54.8 3.7
1/16/21 - 0750 75.7 74.3 12 19.2 0.00 1.69 61.2 43.7 1,017.2 1.4 NNW | 345 4.1 N | 353 262 -43 0.4 5.2 53.7 3.7
1/16/21 - 0740 74.2 72.2 13 18.9 0.00 1.69 61.2 43.6 1,017.1 1.8 N | 352 4.7 W | 277 262 -47 0.3 5.2 52.5 3.7
1/16/21 - 0730 72.4 71.3 13 19.2 0.00 1.69 61.2 43.6 1,017.0 2.8 N | 3 5.2 NNE | 25 263 -50 0.2 5.1 51.6 3.7
1/16/21 - 0720 71.4 71.1 14 19.3 0.00 1.69 61.2 43.7 1,016.9 3.0 NNE | 12 6.5 NNE | 14 263 -54 0.2 5.1 50.8 3.7
1/16/21 - 0710 71.4 69.7 14 19.2 0.00 1.69 61.3 43.6 1,016.7 3.0 N | 359 5.6 NNE | 20 263 -57 0.6 5.1 49.1 3.7
1/16/21 - 0700 69.8 65.5 16 19.5 0.00 1.69 61.3 43.7 1,016.8 3.2 N | 9 6.7 NNW | 328 263 -56 0.4 5.0 46.5 3.7
1/16/21 - 0650 65.4 59.4 21 21.6 0.00 1.69 61.3 43.7 1,016.6 1.9 NNE | 15 5.1 NNE | 22 264 -56 0.5 4.9 44.7 3.7
1/16/21 - 0640 59.2 56.2 26 22.9 0.00 1.69 61.3 43.7 1,016.6 0.5 SSW | 196 2.0 SSE | 165 264 -55 0.4 4.8 43.7 3.7
1/16/21 - 0630 56.4 55.9 29 24.4 0.00 1.69 61.3 43.8 1,016.7 1.3 SSE | 158 2.6 SSE | 168 264 -57 0.4 4.8 43.4 3.7
1/16/21 - 0620 56.4 53.1 32 25.0 0.00 1.69 61.4 43.8 1,016.8 2.2 S | 180 4.3 S | 180 264 -58 1.1 4.7 42.9 3.7
1/16/21 - 0610 54.4 53.3 34 26.4 0.00 1.69 61.4 43.8 1,016.9 1.0 SE | 146 2.6 SSE | 158 264 -61 0.6 4.5 43.0 3.7
1/16/21 - 0600 55.0 53.8 34 26.5 0.00 1.69 61.4 43.8 1,016.7 0.7 SSW | 213 3.2 SSW | 200 264 -63 0.7 4.4 43.3 3.7
1/16/21 - 0550 55.7 54.5 32 25.9 0.00 1.69 61.4 43.8 1,016.6 0.8 SSW | 205 2.7 W | 266 264 -64 0.7 4.3 43.8 3.7
1/16/21 - 0540 56.1 55.7 30 24.9 0.00 1.69 61.4 43.8 1,016.5 0.6 W | 264 1.7 S | 188 264 -62 0.5 4.2 44.2 3.7
1/16/21 - 0530 56.2 55.4 30 25.1 0.00 1.69 61.4 43.8 1,016.4 1.0 S | 169 1.9 SE | 141 264 -61 0.7 4.1 44.5 3.7
1/16/21 - 0520 56.3 55.6 31 26.0 0.00 1.69 61.5 43.8 1,016.4 1.4 S | 185 4.5 SSW | 211 264 -63 0.7 4.0 44.8 3.7
1/16/21 - 0510 57.4 56.5 29 24.8 0.00 1.69 61.5 43.8 1,016.5 1.6 SE | 140 4.3 N | 0 264 -59 0.9 3.9 44.8 3.7
1/16/21 - 0500 57.5 55.9 29 24.7 0.00 1.69 61.5 43.8 1,016.4 1.2 SSE | 153 2.7 SE | 136 264 -57 0.4 3.7 44.9 3.7
1/16/21 - 0450 56.1 55.1 31 25.7 0.00 1.69 61.5 43.8 1,016.5 1.2 SSW | 193 3.5 SW | 235 264 -57 1.0 3.6 45.2 3.7
1/16/21 - 0440 55.8 55.4 32 25.9 0.00 1.69 61.5 43.8 1,016.5 0.7 SSE | 148 2.5 W | 265 264 -58 0.5 3.5 45.7 3.7
1/16/21 - 0430 57.4 55.6 31 25.8 0.00 1.69 61.6 43.8 1,016.5 1.1 ESE | 118 3.3 NNE | 28 264 -58 0.5 3.4 46.0 3.7
1/16/21 - 0420 57.2 56.0 30 25.4 0.00 1.69 61.6 43.9 1,016.4 0.8 SSE | 167 1.9 W | 263 264 -55 0.4 3.3 46.4 3.7
1/16/21 - 0410 57.6 56.2 30 25.7 0.00 1.69 61.5 43.9 1,016.4 0.7 SSE | 161 2.0 WSW | 254 264 -58 0.5 3.2 47.0 3.7
1/16/21 - 0400 58.4 57.4 28 25.1 0.00 1.69 61.6 43.9 1,016.4 0.1 SE | 124 0.7 SE | 135 264 -58 0.1 3.2 47.8 3.7
1/16/21 - 0350 60.0 58.1 27 25.2 0.00 1.69 61.6 43.9 1,016.5 1.1 SSW | 196 2.5 SW | 215 263 -58 0.6 3.1 48.4 3.7
1/16/21 - 0340 62.5 59.9 24 24.2 0.00 1.69 61.6 43.8 1,016.6 0.8 E | 96 2.5 SSW | 192 263 -60 0.2 3.0 49.0 3.7
1/16/21 - 0330 62.5 62.0 22 22.6 0.00 1.69 61.6 43.9 1,016.7 1.0 SSW | 197 2.6 S | 181 263 -58 0.6 3.0 49.4 3.7
1/16/21 - 0320 63.9 62.3 21 22.7 0.00 1.69 61.6 43.9 1,016.8 1.2 SSW | 192 2.6 SSW | 206 263 -58 0.7 2.9 50.0 3.7
1/16/21 - 0310 65.7 63.5 21 23.1 0.00 1.69 61.7 43.9 1,016.8 1.1 SSE | 156 2.5 SSE | 161 263 -60 0.4 2.8 50.6 3.7
1/16/21 - 0300 68.9 65.7 17 21.5 0.00 1.69 61.8 43.9 1,016.9 1.5 S | 172 2.3 SW | 230 263 -61 0.6 2.7 51.2 3.7
1/16/21 - 0250 72.6 68.6 15 20.9 0.00 1.69 62.0 43.9 1,017.0 1.2 SSE | 161 2.5 SSW | 197 262 -64 0.7 2.6 51.9 3.7
1/16/21 - 0240 72.9 72.4 13 19.2 0.00 1.69 62.0 43.9 1,017.0 1.9 WSW | 256 3.6 W | 262 262 -67 0.8 2.5 51.9 3.7
1/16/21 - 0230 72.4 70.6 14 19.4 0.00 1.69 62.1 43.9 1,017.2 3.9 WSW | 258 6.2 WSW | 258 263 -65 2.1 2.4 51.1 3.7
1/16/21 - 0220 70.4 64.9 17 20.6 0.00 1.69 62.1 43.9 1,017.2 2.6 W | 267 6.2 W | 261 263 -59 1.5 2.0 49.6 3.7
1/16/21 - 0210 67.0 65.2 18 21.5 0.00 1.69 62.1 43.9 1,017.3 1.8 S | 184 3.2 WSW | 238 263 -61 1.1 1.8 49.1 3.7
1/16/21 - 0200 66.5 65.5 19 21.9 0.00 1.69 62.1 43.9 1,017.3 1.2 SSE | 152 3.0 WSW | 256 263 -61 0.7 1.6 48.9 3.7
1/16/21 - 0150 66.4 61.8 19 21.4 0.00 1.69 62.1 43.9 1,017.4 1.1 NW | 324 3.8 NNE | 21 263 -58 0.5 1.5 48.4 3.7
1/16/21 - 0140 62.6 61.4 22 22.9 0.00 1.69 62.1 44.0 1,017.5 1.4 S | 191 2.8 S | 187 263 -60 0.8 1.4 48.2 3.7
1/16/21 - 0130 63.8 61.9 22 23.4 0.00 1.69 62.2 44.0 1,017.4 1.1 SSW | 200 3.7 W | 259 263 -62 0.7 1.2 48.3 3.7
1/16/21 - 0120 64.6 63.1 21 22.7 0.00 1.69 62.1 44.0 1,017.2 1.9 S | 187 3.2 SW | 224 263 -62 1.1 1.1 48.3 3.7
1/16/21 - 0110 65.2 62.2 21 22.7 0.00 1.69 62.1 44.0 1,017.1 1.8 S | 171 4.7 W | 278 263 -60 0.8 1.0 48.0 3.7
1/16/21 - 0100 62.4 61.6 22 22.8 0.00 1.69 62.2 44.0 1,017.1 0.9 S | 170 2.1 S | 172 263 -59 0.4 0.8 48.2 3.7
1/16/21 - 0050 62.8 61.6 23 23.8 0.00 1.69 62.1 44.0 1,017.2 0.8 SSW | 196 1.9 S | 178 263 -59 0.4 0.8 48.4 3.7
1/16/21 - 0040 65.6 62.2 21 23.5 0.00 1.69 62.1 44.0 1,017.3 1.9 E | 94 6.1 WSW | 249 263 -59 1.1 0.7 48.1 3.7
1/16/21 - 0030 62.0 59.8 25 24.6 0.00 1.69 62.0 44.0 1,017.4 2.3 SSW | 198 6.9 WSW | 254 264 -56 1.5 0.5 47.0 3.7
1/16/21 - 0020 60.2 59.4 26 24.5 0.00 1.69 62.1 44.0 1,017.5 1.2 SE | 136 2.6 S | 183 263 -59 0.8 0.3 47.1 3.7
1/16/21 - 0010 59.4 58.4 27 24.8 0.00 1.69 62.1 44.0 1,017.5 1.2 S | 191 2.9 SSE | 152 264 -59 0.8 0.1 46.9 3.7
1/16/21 - 0000 60.0 58.6 27 25.2 0.00 1.69 62.1 44.0 1,017.4 0.9 S | 174 2.6 SW | 224 264 -60 0.6 27.0 47.1 3.7
1/15/21 - 2350 59.6 59.0 27 25.4 0.00 1.69 62.0 44.0 1,017.4 1.4 SSW | 206 4.1 WSW | 246 264 -60 0.8 26.9 47.2 3.7
1/15/21 - 2340 60.2 59.4 28 26.5 0.00 1.69 62.1 44.0 1,017.6 0.6 SW | 228 2.0 S | 188 263 -63 0.5 26.8 47.5 3.7
1/15/21 - 2330 62.2 60.0 26 25.8 0.00 1.69 62.1 44.1 1,017.6 1.4 E | 82 3.6 NNE | 29 263 -64 0.9 26.7 47.6 3.7
1/15/21 - 2320 62.1 59.7 25 24.6 0.00 1.69 62.1 44.1 1,017.6 1.7 S | 185 4.7 WSW | 244 263 -61 1.0 26.6 47.3 3.7
1/15/21 - 2310 60.5 59.8 25 24.6 0.00 1.69 62.1 44.1 1,017.7 0.7 SSW | 208 1.9 SW | 216 264 -63 0.3 26.4 47.2 3.7
1/15/21 - 2300 60.3 59.5 26 24.8 0.00 1.69 62.1 44.1 1,017.7 0.9 SE | 145 2.5 E | 96 263 -63 0.5 26.3 47.3 3.7
1/15/21 - 2250 60.3 59.5 26 24.5 0.00 1.69 62.1 44.1 1,017.8 0.8 NNW | 336 2.8 SW | 232 263 -63 0.6 26.3 47.4 3.7
1/15/21 - 2240 60.2 59.3 26 24.6 0.00 1.69 62.1 44.1 1,017.9 0.8 SSW | 206 2.3 WSW | 237 263 -65 0.6 26.2 47.5 3.7
1/15/21 - 2230 60.4 59.3 26 25.0 0.00 1.69 62.1 44.1 1,018.0 1.7 SSW | 198 3.7 SSW | 197 263 -65 1.1 26.1 47.6 3.7
1/15/21 - 2220 59.8 59.2 27 25.2 0.00 1.69 62.0 44.1 1,018.1 0.9 SSE | 158 2.2 SSE | 149 263 -66 0.6 25.9 48.0 3.7
1/15/21 - 2210 60.2 59.2 26 24.9 0.00 1.69 62.1 44.1 1,018.3 1.3 SSE | 163 4.1 SE | 136 263 -67 0.5 25.8 48.4 3.7
1/15/21 - 2200 60.5 59.0 26 24.7 0.00 1.69 62.1 44.1 1,018.4 1.2 S | 188 3.0 SE | 137 263 -66 0.8 25.7 48.8 3.7
1/15/21 - 2150 60.8 60.2 26 25.0 0.00 1.69 62.0 44.1 1,018.4 0.7 SSE | 162 2.6 W | 280 263 -67 0.7 25.6 49.4 3.7
1/15/21 - 2140 61.6 60.7 25 25.0 0.00 1.69 62.0 44.1 1,018.6 1.2 S | 174 3.3 N | 9 263 -68 0.8 25.4 49.8 3.7
1/15/21 - 2130 61.8 60.7 25 25.2 0.00 1.69 62.1 44.1 1,018.6 1.7 S | 171 3.3 SE | 145 263 -68 0.5 25.3 49.9 3.7
1/15/21 - 2120 61.8 60.9 25 25.4 0.00 1.69 62.0 44.2 1,018.6 1.4 SSE | 165 3.3 SE | 136 263 -69 0.7 25.2 50.2 3.7
1/15/21 - 2110 62.3 61.3 25 25.1 0.00 1.69 62.0 44.2 1,018.6 1.4 SE | 136 3.8 NE | 41 263 -70 1.1 25.1 50.2 3.7
1/15/21 - 2100 62.4 61.8 24 24.8 0.00 1.69 62.0 44.2 1,018.7 1.3 SSW | 194 3.4 S | 190 263 -70 0.9 24.9 50.5 3.7
1/15/21 - 2050 63.0 62.2 22 23.8 0.00 1.69 62.0 44.2 1,018.7 0.8 SE | 142 2.2 SSE | 158 263 -69 0.4 24.8 51.0 3.7
1/15/21 - 2040 63.6 63.0 22 23.6 0.00 1.69 62.0 44.2 1,018.6 1.0 SSE | 168 2.2 NNE | 17 263 -69 0.6 24.7 51.5 3.7
1/15/21 - 2030 63.9 63.4 22 24.6 0.00 1.69 61.9 44.2 1,018.5 1.0 SSE | 149 2.4 SE | 131 263 -68 0.3 24.6 51.9 3.7
1/15/21 - 2020 64.5 63.5 22 24.2 0.00 1.69 61.9 44.2 1,018.5 1.5 SSE | 153 3.7 SE | 141 263 -69 0.4 24.6 52.4 3.7
1/15/21 - 2010 64.6 63.8 21 24.0 0.00 1.69 61.9 44.1 1,018.5 1.1 SSE | 157 2.0 SE | 124 263 -69 0.7 24.5 52.7 3.7
1/15/21 - 2000 64.4 63.4 22 24.1 0.00 1.69 61.9 44.2 1,018.6 1.0 SSE | 154 2.3 SE | 136 263 -69 0.8 24.4 53.0 3.7
1/15/21 - 1950 65.3 63.4 22 24.6 0.00 1.69 61.8 44.2 1,018.5 0.9 SSE | 161 2.6 S | 178 263 -70 0.7 24.2 53.4 3.7
1/15/21 - 1940 65.4 64.4 22 24.6 0.00 1.69 61.8 44.2 1,018.4 1.6 SSE | 152 2.6 SE | 132 262 -70 0.6 24.1 53.7 3.7
1/15/21 - 1930 65.9 64.7 21 24.0 0.00 1.69 61.8 44.2 1,018.5 1.4 SSE | 154 2.7 SE | 142 262 -69 0.5 24.0 54.1 3.7
1/15/21 - 1920 65.9 65.2 21 24.2 0.00 1.69 61.7 44.2 1,018.6 1.7 S | 175 3.5 SE | 140 262 -70 0.9 24.0 54.6 3.7
1/15/21 - 1910 66.9 65.7 20 24.5 0.00 1.69 61.8 44.2 1,018.7 1.3 SSE | 154 2.2 SSE | 152 262 -70 0.8 23.8 55.2 3.7
1/15/21 - 1900 68.6 66.7 18 23.1 0.00 1.69 61.7 44.2 1,018.6 1.6 SSE | 164 2.6 SW | 220 262 -70 0.6 23.7 55.8 3.7
1/15/21 - 1850 69.5 67.9 17 22.2 0.00 1.69 61.6 44.2 1,018.7 1.1 S | 173 2.5 SW | 225 262 -72 0.6 23.6 56.6 3.7
1/15/21 - 1840 68.8 67.7 18 22.8 0.00 1.69 61.7 44.2 1,018.8 1.6 SSE | 158 3.3 SE | 146 262 -75 0.9 23.5 57.1 3.7
1/15/21 - 1830 68.5 67.2 18 23.2 0.00 1.69 61.6 44.2 1,018.8 2.1 SSE | 161 3.4 S | 178 262 -74 1.3 23.3 57.5 3.7
1/15/21 - 1820 69.2 67.8 18 23.2 0.00 1.69 61.6 44.2 1,018.9 1.5 SSE | 155 3.4 S | 187 262 -75 0.6 23.1 58.2 3.7
1/15/21 - 1810 70.3 68.6 17 22.0 0.00 1.69 61.5 44.2 1,018.9 1.6 S | 171 2.8 SSW | 197 262 -75 0.9 23.0 59.2 3.7
1/15/21 - 1800 70.7 69.7 17 22.7 0.00 1.69 61.4 44.1 1,018.9 1.4 SSE | 158 4.0 SSW | 194 261 -78 0.9 22.9 60.3 3.7
1/15/21 - 1750 72.0 70.7 15 21.4 0.00 1.69 61.4 44.2 1,018.9 0.8 S | 185 2.0 SSW | 212 261 -78 0.5 22.7 61.5 3.7
1/15/21 - 1740 74.4 71.9 13 20.2 0.00 1.69 61.4 44.1 1,018.8 1.9 S | 185 3.3 SW | 217 261 -79 0.6 22.6 63.2 3.7
1/15/21 - 1730 74.6 73.8 13 20.0 0.00 1.69 61.3 44.1 1,018.8 0.9 S | 173 2.4 SE | 136 261 -83 0.5 22.5 65.0 3.7
1/15/21 - 1720 77.6 74.7 12 19.8 0.00 1.69 60.8 44.1 1,018.8 0.8 SSE | 154 2.1 ESE | 116 261 -83 0.1 22.5 66.7 3.8
1/15/21 - 1710 80.8 77.6 10 17.6 0.00 1.69 60.7 44.1 1,018.8 0.6 SSE | 167 1.9 SSE | 166 261 -84 0.1 22.4 69.4 3.8
1/15/21 - 1700 81.8 80.9 9 16.9 0.00 1.69 60.8 44.0 1,018.8 0.4 N | 5 3.2 NE | 43 261 -86 0.3 22.4 72.1 3.8
1/15/21 - 1650 82.9 81.6 8 16.0 0.00 1.69 60.7 44.0 1,018.8 1.4 NNE | 32 3.7 NNE | 31 261 -87 0.4 22.4 74.4 3.8
1/15/21 - 1640 83.7 82.7 8 14.6 0.00 1.69 60.7 44.0 1,018.8 2.6 N | 6 7.2 NNE | 12 261 -82 0.9 22.3 76.2 3.8
1/15/21 - 1630 84.3 83.5 7 14.6 0.00 1.69 60.7 44.0 1,018.8 2.9 N | 6 6.9 N | 11 260 -57 0.8 22.2 79.0 3.8
1/15/21 - 1620 84.8 84.0 7 13.9 0.00 1.69 60.6 44.0 1,018.9 4.0 N | 7 9.7 NE | 38 260 -40 1.3 22.0 81.1 3.8
1/15/21 - 1610 85.4 84.6 7 15.2 0.00 1.69 60.6 43.9 1,019.0 3.0 N | 354 8.6 NNW | 337 260 -21 0.9 21.8 83.2 3.8
1/15/21 - 1600 85.6 85.1 8 16.3 0.00 1.69 60.6 43.9 1,019.0 2.0 N | 358 5.5 NNW | 335 260 1 0.5 21.7 83.3 3.8
1/15/21 - 1550 85.4 84.9 8 16.6 0.00 1.69 60.6 43.9 1,019.0 3.1 N | 3 11.1 NNW | 345 260 25 1.1 21.6 83.7 3.8
1/15/21 - 1540 85.1 84.8 8 17.0 0.00 1.69 60.6 43.9 1,018.9 3.2 N | 355 8.1 NW | 314 260 48 1.3 21.4 84.6 3.8
1/15/21 - 1530 85.1 84.7 8 17.1 0.00 1.69 60.5 43.9 1,018.9 4.1 N | 9 10.6 NNW | 346 260 71 1.4 21.2 85.9 3.7
1/15/21 - 1520 85.4 85.0 8 17.4 0.00 1.69 60.5 43.9 1,019.0 4.2 N | 358 9.7 NNE | 17 261 94 1.1 21.0 86.5 3.7
1/15/21 - 1510 85.5 85.0 8 16.9 0.00 1.69 60.5 43.8 1,019.2 4.2 N | 359 11.7 NNE | 28 260 115 1.3 20.8 87.0 3.7
1/15/21 - 1500 85.6 85.2 8 17.4 0.00 1.69 60.5 43.8 1,019.3 3.6 N | 356 8.8 NNE | 18 260 135 1.3 20.6 87.9 3.8
1/15/21 - 1450 86.0 85.1 8 18.5 0.00 1.69 60.5 43.7 1,019.4 3.2 NNW | 342 8.9 NE | 44 260 149 1.2 20.4 88.1 3.7
1/15/21 - 1440 85.7 85.0 8 18.6 0.00 1.69 60.5 43.7 1,019.4 4.3 NNW | 346 10.0 NE | 35 260 175 1.9 20.2 88.7 3.8
1/15/21 - 1430 85.7 85.1 8 18.6 0.00 1.69 60.5 43.7 1,019.4 4.8 N | 0 12.8 NNE | 20 260 191 2.1 19.8 89.8 3.7
1/15/21 - 1420 85.7 85.4 8 18.6 0.00 1.69 60.4 43.7 1,019.6 3.8 N | 351 8.2 NNE | 14 260 206 1.2 19.5 89.6 3.7
1/15/21 - 1410 85.8 85.4 8 18.2 0.00 1.69 60.5 43.7 1,019.6 4.8 N | 1 10.1 NNE | 18 260 221 2.0 19.3 89.6 3.7
1/15/21 - 1400 85.5 84.9 8 18.2 0.00 1.69 60.5 43.6 1,019.8 4.9 N | 11 12.4 WNW | 290 260 237 1.6 19.0 89.6 3.7
1/15/21 - 1350 85.4 84.8 8 17.8 0.00 1.69 60.4 43.6 1,019.8 6.0 N | 5 11.9 NNE | 16 260 251 2.1 18.7 90.0 3.8
1/15/21 - 1340 86.6 85.0 8 18.0 0.00 1.69 60.5 43.6 1,019.7 6.8 N | 4 15.3 NNE | 28 260 262 2.2 18.3 90.8 3.8
1/15/21 - 1330 86.2 85.1 9 19.2 0.00 1.69 60.5 43.6 1,019.7 3.8 N | 357 7.6 NNW | 340 260 271 1.1 18.0 90.8 3.7
1/15/21 - 1320 86.2 85.1 9 19.2 0.00 1.69 60.3 43.5 1,019.8 5.3 N | 7 12.8 N | 1 260 264 1.8 17.8 90.4 3.8
1/15/21 - 1310 86.2 85.7 9 19.8 0.00 1.69 60.5 43.5 1,019.9 3.8 N | 5 10.8 N | 2 260 282 1.3 17.5 90.6 3.7
1/15/21 - 1300 85.7 85.0 9 19.5 0.00 1.69 60.5 43.5 1,020.0 4.5 N | 5 10.3 N | 4 260 298 1.5 17.3 89.9 3.7
1/15/21 - 1250 85.7 85.0 9 19.2 0.00 1.69 60.4 43.5 1,020.3 5.2 N | 358 14.7 N | 7 260 282 1.8 17.0 89.6 3.7
1/15/21 - 1240 85.7 84.9 9 19.6 0.00 1.69 60.4 43.5 1,020.4 4.4 N | 353 10.2 N | 8 260 288 1.8 16.7 89.5 3.8
1/15/21 - 1230 85.3 84.9 9 19.8 0.00 1.69 60.4 43.5 1,020.6 4.6 N | 349 10.4 NNE | 26 261 293 1.8 16.4 89.2 3.8
1/15/21 - 1220 85.7 84.9 9 20.2 0.00 1.69 60.4 43.4 1,020.7 5.4 N | 10 16.9 N | 0 260 312 1.9 16.1 88.6 3.7
1/15/21 - 1210 85.2 84.4 9 20.3 0.00 1.69 60.3 43.4 1,020.9 4.3 N | 359 9.3 NW | 305 261 318 1.4 15.8 88.0 3.7
1/15/21 - 1200 84.6 84.0 9 20.2 0.00 1.69 60.4 43.4 1,021.1 5.1 N | 4 16.4 N | 4 261 318 2.1 15.6 87.4 3.7
1/15/21 - 1150 84.3 83.7 9 20.2 0.00 1.69 60.4 43.4 1,021.2 5.4 N | 5 10.7 NW | 324 261 308 1.9 15.2 87.0 3.7
1/15/21 - 1140 84.7 83.8 9 20.3 0.00 1.69 60.3 43.3 1,021.5 5.2 N | 2 13.2 WNW | 299 260 309 1.8 14.9 86.6 3.7
1/15/21 - 1130 84.8 83.8 9 20.1 0.00 1.69 60.3 43.4 1,021.7 3.7 N | 5 10.8 SSW | 213 261 304 1.6 14.6 86.6 3.7
1/15/21 - 1120 84.1 83.8 9 20.1 0.00 1.69 60.4 43.3 1,021.9 4.8 N | 357 10.3 N | 351 261 286 2.1 14.3 85.7 3.7
1/15/21 - 1110 84.2 83.5 10 20.7 0.00 1.69 60.4 43.4 1,022.1 4.2 N | 360 10.3 NNE | 21 261 280 1.6 14.0 78.1 3.7
1/15/21 - 1100 83.7 83.1 10 20.7 0.00 1.69 60.3 43.3 1,022.3 4.2 N | 3 10.0 ENE | 60 261 278 1.5 13.7 70.3 3.7
1/15/21 - 1050 83.7 83.0 10 20.5 0.00